Time;durP1;ratioP1;P1;durP2;ratioP2;P2;SDS_P1;SDS_P2;PMS_P1;PMS_P2;Temp;Humidity;BMP_temperature;BMP_pressure;BME280_temperature;BME280_humidity;BME280_pressure;Samples;Min_cycle;Max_cycle;Signal;HPM_P1;HPM_P2
2023/08/21 00:08:23;;;;;;;2.53;2.33;;;22.90;99.90;;;;;;5434984;23;20568;-87
2023/08/21 00:10:50;;;;;;;2.10;2.00;;;23.00;99.90;;;;;;4969349;28;20425;-89
2023/08/21 00:13:18;;;;;;;2.47;2.37;;;22.90;99.90;;;;;;4977700;28;20512;-87
2023/08/21 00:15:46;;;;;;;3.23;1.70;;;22.80;99.90;;;;;;4984869;28;20469;-89
2023/08/21 00:18:13;;;;;;;1.73;1.63;;;22.80;99.90;;;;;;4980264;28;20420;-89
2023/08/21 00:25:50;;;;;;;2.33;2.20;;;22.70;99.90;;;;;;5099781;23;20519;-87
2023/08/21 00:28:17;;;;;;;2.17;2.07;;;22.80;99.90;;;;;;4951492;28;20623;-87
2023/08/21 00:30:44;;;;;;;2.63;2.43;;;22.80;99.90;;;;;;5136528;23;20482;-87
2023/08/21 00:33:11;;;;;;;3.00;2.80;;;22.70;99.90;;;;;;5394034;23;20786;-88
2023/08/21 00:35:38;;;;;;;2.03;1.93;;;22.60;99.90;;;;;;5431695;23;20790;-88
2023/08/21 00:43:19;;;;;;;1.77;1.67;;;22.50;99.90;;;;;;5039583;23;20460;-86
2023/08/21 00:45:47;;;;;;;1.70;1.60;;;22.50;99.90;;;;;;4978293;28;20471;-87
2023/08/21 00:48:14;;;;;;;2.20;2.10;;;22.60;99.90;;;;;;4962751;28;20450;-86
2023/08/21 01:04:05;;;;;;;3.30;3.10;;;22.40;99.90;;;;;;5383967;23;20497;-87
2023/08/21 01:06:33;;;;;;;2.10;1.83;;;22.50;99.90;;;;;;4982862;28;20507;-87
2023/08/21 01:09:08;;;;;;;1.87;1.73;;;22.60;99.90;;;;;;4984536;28;20481;-87
2023/08/21 01:12:20;;;;;;;1.80;1.70;;;22.60;99.90;;;;;;4978187;28;20835;-90
2023/08/21 01:15:03;;;;;;;2.80;2.60;;;22.60;99.90;;;;;;4961619;28;20415;-88
2023/08/21 01:17:30;;;;;;;1.17;1.07;;;22.50;99.90;;;;;;4977161;28;20462;-85
2023/08/21 01:22:37;;;;;;;3.50;3.23;;;22.60;99.90;;;;;;4948007;26;20429;-88
2023/08/21 01:25:06;;;;;;;1.73;1.63;;;22.50;99.90;;;;;;4943029;29;20471;-88
2023/08/21 01:27:35;;;;;;;2.33;2.23;;;22.70;99.90;;;;;;4939851;29;20438;-87
2023/08/21 01:30:04;;;;;;;1.73;1.63;;;22.50;99.90;;;;;;5016650;23;20504;-87
2023/08/21 01:32:48;;;;;;;1.23;1.13;;;22.70;99.90;;;;;;4939131;29;20447;-86
2023/08/21 01:35:16;;;;;;;2.03;1.93;;;22.70;99.90;;;;;;5169740;23;20495;-89
2023/08/21 01:37:44;;;;;;;2.80;2.60;;;22.60;99.90;;;;;;5003666;28;20610;-89
2023/08/21 01:40:11;;;;;;;1.87;1.77;;;22.70;99.90;;;;;;5003798;28;20483;-91
2023/08/21 01:42:38;;;;;;;1.37;1.30;;;22.70;99.90;;;;;;5002573;28;20495;-87
2023/08/21 01:47:48;;;;;;;2.37;2.17;;;;;;;;;;5279500;23;20538;-86
2023/08/21 01:50:15;;;;;;;1.93;1.80;;;22.80;99.90;;;;;;5136289;23;20466;-86
2023/08/21 01:52:42;;;;;;;2.33;2.13;;;22.80;99.90;;;;;;4987073;28;20450;-87
2023/08/21 01:55:10;;;;;;;3.97;3.47;;;22.90;99.90;;;;;;4991979;28;20709;-82
2023/08/21 01:57:37;;;;;;;2.90;2.70;;;22.90;99.90;;;;;;4987100;28;20616;-85
2023/08/21 02:00:18;;;;;;;3.40;2.93;;;22.90;99.90;;;;;;5071261;23;20554;-88
2023/08/21 02:06:11;;;;;;;;;;;;;;;;;;;;;
2023/08/21 02:14:02;;;;;;;2.60;2.40;;;22.20;99.90;;;;;;4986292;23;20420;-87
2023/08/21 02:16:34;;;;;;;2.90;2.60;;;22.10;99.90;;;;;;4961093;29;20417;-86
2023/08/21 02:24:29;;;;;;;5.83;5.27;;;22.10;99.90;;;;;;4930192;29;20537;-84
2023/08/21 02:26:56;;;;;;;1.27;1.27;;;22.30;99.90;;;;;;4939399;29;20516;-87
2023/08/21 02:29:23;;;;;;;3.77;3.57;;;22.20;99.90;;;;;;4940791;29;20844;-81
2023/08/21 02:31:50;;;;;;;3.50;3.30;;;22.70;99.90;;;;;;4926816;29;20442;-82
2023/08/21 02:34:17;;;;;;;3.00;2.80;;;22.10;99.90;;;;;;4941003;29;20418;-84
2023/08/21 02:36:44;;;;;;;3.20;3.00;;;22.00;99.90;;;;;;4918284;29;20477;-87
2023/08/21 02:39:11;;;;;;;3.13;3.03;;;22.00;99.90;;;;;;4940777;29;20459;-88
2023/08/21 02:41:40;;;;;;;2.50;2.30;;;22.10;99.90;;;;;;4928438;29;20542;-85
2023/08/21 02:44:08;;;;;;;1.93;1.83;;;21.90;99.90;;;;;;4938044;29;20436;-81
2023/08/21 02:46:36;;;;;;;3.10;2.90;;;21.90;99.90;;;;;;4938196;29;20783;-84
2023/08/21 02:49:03;;;;;;;4.67;4.23;;;21.90;99.90;;;;;;4936509;29;20414;-82
2023/08/21 02:51:30;;;;;;;2.50;2.30;;;21.70;99.90;;;;;;4930503;29;20745;-83
2023/08/21 02:53:57;;;;;;;2.40;2.30;;;21.70;99.90;;;;;;4930591;29;20436;-86
2023/08/21 02:56:24;;;;;;;0.70;0.70;;;21.60;99.90;;;;;;4923277;29;20550;-78
2023/08/21 02:58:52;;;;;;;1.53;1.43;;;21.60;99.90;;;;;;4930785;29;20493;-80
2023/08/21 03:01:21;;;;;;;1.97;1.87;;;21.80;99.90;;;;;;4929481;29;20441;-79
2023/08/21 03:03:49;;;;;;;2.20;2.03;;;21.30;99.90;;;;;;4930703;29;20418;-88
2023/08/21 03:06:16;;;;;;;1.93;1.50;;;21.00;99.90;;;;;;4922101;29;20656;-82
2023/08/21 03:08:51;;;;;;;1.73;1.63;;;20.50;99.90;;;;;;4921193;29;20477;-85
2023/08/21 03:11:20;;;;;;;0.80;0.80;;;21.90;99.90;;;;;;4926623;29;20421;-79
2023/08/21 03:13:47;;;;;;;1.60;1.30;;;20.40;99.90;;;;;;4923401;29;20538;-84
2023/08/21 03:16:14;;;;;;;1.63;1.57;;;20.40;99.90;;;;;;4925106;29;20438;-85
2023/08/21 03:18:58;;;;;;;3.40;3.10;;;21.10;99.90;;;;;;4925977;29;20447;-81
2023/08/21 03:21:26;;;;;;;1.10;1.10;;;21.50;99.90;;;;;;4924658;29;20496;-81
2023/08/21 03:23:59;;;;;;;1.90;1.80;;;20.70;99.90;;;;;;4929458;29;20518;-81
2023/08/21 03:26:31;;;;;;;1.37;1.27;;;20.40;99.90;;;;;;4922017;28;20774;-86
2023/08/21 03:29:03;;;;;;;2.20;2.10;;;20.50;99.90;;;;;;4931885;29;20451;-87
2023/08/21 03:31:31;;;;;;;2.83;2.50;;;20.50;99.90;;;;;;5119828;23;20805;-86
2023/08/21 03:33:58;;;;;;;1.33;1.23;;;21.60;99.90;;;;;;4961064;28;20525;-81
2023/08/21 03:36:36;;;;;;;2.17;2.07;;;20.70;99.90;;;;;;4961959;29;20447;-83
2023/08/21 03:39:11;;;;;;;1.60;1.50;;;20.70;99.90;;;;;;4948322;28;20529;-88
2023/08/21 03:41:41;;;;;;;3.73;3.43;;;21.10;99.90;;;;;;4948118;28;20412;-85
2023/08/21 03:44:24;;;;;;;1.67;1.57;;;20.90;99.90;;;;;;4941059;29;20440;-83
2023/08/21 03:46:52;;;;;;;2.80;2.60;;;22.00;99.90;;;;;;4955703;29;20582;-77
2023/08/21 03:49:19;;;;;;;2.07;1.97;;;22.10;99.90;;;;;;4958848;29;20481;-84
2023/08/21 03:51:48;;;;;;;2.23;2.13;;;21.20;99.90;;;;;;4943239;29;20443;-80
2023/08/21 03:54:19;;;;;;;5.30;5.00;;;21.30;99.90;;;;;;4943418;29;20737;-89
2023/08/21 03:56:47;;;;;;;3.17;2.97;;;21.10;99.90;;;;;;4960421;29;20508;-82
2023/08/21 03:59:14;;;;;;;2.10;2.00;;;21.20;99.90;;;;;;4960346;29;20500;-83
2023/08/21 04:01:41;;;;;;;3.67;3.47;;;21.20;99.90;;;;;;4942564;29;20432;-85
2023/08/21 04:04:09;;;;;;;4.00;3.67;;;21.20;99.90;;;;;;4943845;29;20668;-89
2023/08/21 04:06:36;;;;;;;2.93;2.07;;;21.10;99.90;;;;;;4959747;29;20691;-83
2023/08/21 04:09:09;;;;;;;3.30;3.07;;;21.90;99.90;;;;;;4959812;29;20425;-87
2023/08/21 04:11:36;;;;;;;5.67;5.27;;;21.90;99.90;;;;;;4960108;29;20798;-85
2023/08/21 04:14:03;;;;;;;2.37;2.27;;;22.00;99.90;;;;;;4959936;29;20451;-84
2023/08/21 04:16:30;;;;;;;3.40;3.20;;;21.10;99.90;;;;;;4960224;29;20452;-88
2023/08/21 04:18:57;;;;;;;1.60;1.50;;;21.10;99.90;;;;;;4960196;29;20477;-86
2023/08/21 04:21:28;;;;;;;3.30;3.00;;;21.20;99.90;;;;;;4959947;29;20849;-86
2023/08/21 04:24:04;;;;;;;1.80;1.70;;;21.00;99.90;;;;;;4958175;28;20814;-86
2023/08/21 04:26:31;;;;;;;4.57;3.70;;;21.00;99.90;;;;;;4960614;28;20520;-85
2023/08/21 04:28:58;;;;;;;3.03;2.87;;;21.10;99.90;;;;;;4957174;28;20447;-81
2023/08/21 04:31:28;;;;;;;3.47;3.23;;;21.30;99.90;;;;;;4951492;28;20453;-81
2023/08/21 04:34:03;;;;;;;3.93;3.73;;;21.00;99.90;;;;;;4934094;29;20441;-83
2023/08/21 04:36:38;;;;;;;4.30;4.00;;;21.00;99.90;;;;;;4957980;28;20512;-88
2023/08/21 04:39:05;;;;;;;2.00;1.90;;;21.30;99.90;;;;;;4949551;28;20531;-87
2023/08/21 04:41:32;;;;;;;3.17;3.00;;;21.10;99.90;;;;;;4941394;29;20650;-88
2023/08/21 04:44:00;;;;;;;6.47;6.07;;;21.40;99.90;;;;;;4937425;28;20442;-83
2023/08/21 04:46:27;;;;;;;3.50;3.10;;;20.90;99.90;;;;;;4931299;29;20589;-82
2023/08/21 04:48:54;;;;;;;2.50;2.37;;;20.90;99.90;;;;;;4959679;28;20753;-83
2023/08/21 04:51:21;;;;;;;2.77;2.57;;;20.80;99.90;;;;;;4960214;28;20447;-81
2023/08/21 04:53:50;;;;;;;2.30;2.20;;;20.90;99.90;;;;;;4954598;28;20487;-80
2023/08/21 04:56:17;;;;;;;3.13;2.93;;;20.90;99.90;;;;;;4961268;28;20640;-79
2023/08/21 04:58:46;;;;;;;3.17;2.80;;;20.90;99.90;;;;;;4936401;29;20466;-83
2023/08/21 05:01:13;;;;;;;4.17;3.90;;;20.80;99.90;;;;;;4947555;28;20869;-82
2023/08/21 05:03:40;;;;;;;3.10;2.97;;;20.80;99.90;;;;;;4953968;28;20507;-80
2023/08/21 05:06:07;;;;;;;4.07;3.87;;;20.70;99.90;;;;;;4949712;28;20494;-81
2023/08/21 05:08:37;;;;;;;3.20;3.03;;;20.70;99.90;;;;;;4952792;28;20469;-81
2023/08/21 05:11:04;;;;;;;4.97;4.57;;;20.60;99.90;;;;;;4951833;28;20493;-83
2023/08/21 05:13:31;;;;;;;7.43;6.93;;;20.50;99.90;;;;;;4955837;28;20491;-83
2023/08/21 05:15:58;;;;;;;8.13;7.33;;;20.40;99.90;;;;;;4962870;28;20520;-86
2023/08/21 05:18:26;;;;;;;3.13;2.93;;;20.40;99.90;;;;;;4962554;28;20468;-83
2023/08/21 05:20:55;;;;;;;5.10;4.80;;;20.60;99.90;;;;;;4955780;28;20438;-78
2023/08/21 05:23:23;;;;;;;3.23;3.03;;;20.50;99.90;;;;;;4957179;28;20514;-80
2023/08/21 05:25:50;;;;;;;4.37;4.07;;;20.50;99.90;;;;;;4957884;28;20846;-81
2023/08/21 05:28:17;;;;;;;3.83;3.53;;;20.50;99.90;;;;;;4951749;29;20455;-82
2023/08/21 05:30:47;;;;;;;3.77;3.57;;;20.70;99.90;;;;;;4942003;29;20602;-82
2023/08/21 05:33:14;;;;;;;2.97;2.77;;;20.80;99.90;;;;;;4966957;28;20454;-86
2023/08/21 05:35:41;;;;;;;3.83;3.53;;;20.50;99.90;;;;;;4965684;28;20749;-86
2023/08/21 05:38:08;;;;;;;2.73;2.20;;;20.80;99.90;;;;;;4959211;28;20457;-85
2023/08/21 05:40:35;;;;;;;5.53;4.47;;;20.60;99.90;;;;;;4935858;29;20425;-85
2023/08/21 05:43:03;;;;;;;2.20;2.10;;;20.60;99.90;;;;;;4952147;28;20488;-83
2023/08/21 05:45:30;;;;;;;4.27;3.97;;;20.70;99.90;;;;;;4960484;28;20548;-83
2023/08/21 05:47:57;;;;;;;4.67;4.37;;;20.90;99.90;;;;;;4935376;28;20424;-83
2023/08/21 05:50:24;;;;;;;3.37;3.17;;;20.90;99.90;;;;;;4960710;28;20782;-82
2023/08/21 05:52:54;;;;;;;2.87;2.67;;;21.10;99.90;;;;;;4953259;28;20457;-85
2023/08/21 05:55:21;;;;;;;2.30;2.10;;;21.50;99.90;;;;;;4959715;28;20456;-84
2023/08/21 05:57:48;;;;;;;2.70;2.53;;;21.60;99.90;;;;;;4944334;28;20487;-83
2023/08/21 06:00:18;;;;;;;1.63;1.53;;;21.00;99.90;;;;;;4955183;28;20458;-81
2023/08/21 06:02:45;;;;;;;3.33;2.70;;;21.70;99.90;;;;;;4952726;28;20778;-82
2023/08/21 06:05:21;;;;;;;2.37;2.27;;;21.80;99.90;;;;;;4956474;28;20533;-87
2023/08/21 06:07:48;;;;;;;3.80;3.50;;;22.00;99.90;;;;;;4958736;28;20437;-80
2023/08/21 06:10:17;;;;;;;3.13;2.93;;;22.20;99.90;;;;;;4944648;29;20483;-86
2023/08/21 06:12:53;;;;;;;1.73;1.63;;;22.20;99.90;;;;;;4937348;29;20416;-82
2023/08/21 06:15:28;;;;;;;1.90;1.80;;;22.80;99.90;;;;;;4941623;29;20407;-81
2023/08/21 06:18:17;;;;;;;1.73;1.63;;;22.40;99.90;;;;;;4951110;28;20494;-85
2023/08/21 06:20:45;;;;;;;1.77;1.67;;;22.50;99.90;;;;;;4939548;29;20627;-81
2023/08/21 06:23:12;;;;;;;1.40;1.30;;;22.60;99.90;;;;;;4960181;28;20501;-82
2023/08/21 06:25:39;;;;;;;2.37;2.27;;;22.50;99.90;;;;;;4964744;28;20463;-78
2023/08/21 06:28:08;;;;;;;2.27;1.50;;;22.60;99.90;;;;;;4954515;28;20467;-84
2023/08/21 06:30:35;;;;;;;1.40;1.30;;;22.70;99.90;;;;;;4966136;28;20473;-86
2023/08/21 06:33:03;;;;;;;1.93;1.83;;;23.00;99.90;;;;;;4957624;28;20408;-83
2023/08/21 06:35:30;;;;;;;1.10;1.10;;;23.00;99.90;;;;;;4928801;29;20435;-83
2023/08/21 06:38:00;;;;;;;1.50;1.40;;;23.00;99.90;;;;;;4950372;28;20465;-88
2023/08/21 06:40:27;;;;;;;1.63;1.53;;;22.60;99.90;;;;;;4934020;29;20453;-86
2023/08/21 06:42:54;;;;;;;1.23;1.13;;;22.50;99.90;;;;;;4951905;28;20705;-88
2023/08/21 06:45:34;;;;;;;;;;;;;;;;;;;;;
2023/08/21 06:48:07;;;;;;;2.90;2.80;;;22.50;99.90;;;;;;4961006;28;20433;-86
2023/08/21 06:50:36;;;;;;;1.50;1.50;;;22.50;99.90;;;;;;4960125;28;20423;-87
2023/08/21 06:53:03;;;;;;;0.87;0.87;;;22.80;99.90;;;;;;4954262;28;20437;-89
2023/08/21 06:55:31;;;;;;;1.17;1.07;;;22.80;99.90;;;;;;4949733;28;20427;-86
2023/08/21 06:57:58;;;;;;;1.07;1.00;;;23.00;99.90;;;;;;4953386;28;20449;-88
2023/08/21 07:00:26;;;;;;;0.90;0.90;;;22.10;99.90;;;;;;4943713;29;20625;-86
2023/08/21 07:02:53;;;;;;;1.20;1.20;;;22.90;99.90;;;;;;4966169;28;20416;-87
2023/08/21 07:05:20;;;;;;;1.20;1.10;;;22.80;99.90;;;;;;4963282;29;20485;-86
2023/08/21 07:07:48;;;;;;;0.90;0.90;;;23.40;99.90;;;;;;4962368;28;20493;-87
2023/08/21 07:10:15;;;;;;;1.20;1.10;;;24.00;99.90;;;;;;4956369;28;20637;-83
2023/08/21 07:12:42;;;;;;;1.27;1.23;;;24.10;99.90;;;;;;4955521;28;20420;-87
2023/08/21 07:15:09;;;;;;;1.20;1.20;;;24.50;99.90;;;;;;5009781;23;20484;-81
2023/08/21 07:17:36;;;;;;;1.40;1.30;;;24.60;99.90;;;;;;5000608;23;20549;-87
2023/08/21 07:20:04;;;;;;;1.23;1.20;;;24.70;99.90;;;;;;5415432;23;20554;-90
2023/08/21 07:25:07;;;;;;;1.10;1.00;;;24.30;99.90;;;;;;5007314;23;20500;-88
2023/08/21 07:30:10;;;;;;;1.17;1.17;;;24.60;99.90;;;;;;4964012;29;20465;-83
2023/08/21 07:32:38;;;;;;;1.20;1.20;;;24.90;99.90;;;;;;4961016;28;20636;-83
2023/08/21 07:35:06;;;;;;;1.20;1.13;;;24.80;99.90;;;;;;4965697;28;20456;-83
2023/08/21 07:37:33;;;;;;;0.90;0.90;;;24.40;99.90;;;;;;4935950;29;20636;-83
2023/08/21 07:40:05;;;;;;;1.43;1.33;;;23.80;99.90;;;;;;4943589;29;20444;-87
2023/08/21 07:42:31;;;;;;;1.10;1.10;;;24.50;99.90;;;;;;4959636;29;20455;-86
2023/08/21 07:45:04;;;;;;;1.50;1.40;;;25.30;99.90;;;;;;4943031;29;20900;-83
2023/08/21 07:47:31;;;;;;;1.13;1.13;;;25.10;99.90;;;;;;4962666;28;20534;-79
2023/08/21 07:50:02;;;;;;;1.37;1.37;;;24.70;99.90;;;;;;4962875;29;20449;-84
2023/08/21 07:52:29;;;;;;;1.77;1.67;;;24.90;99.90;;;;;;4945119;29;20429;-78
2023/08/21 07:54:56;;;;;;;1.10;1.10;;;25.30;99.90;;;;;;4960740;29;20455;-84
2023/08/21 07:57:23;;;;;;;1.50;1.40;;;25.40;98.60;;;;;;4961693;29;20487;-80
2023/08/21 07:59:52;;;;;;;1.60;1.50;;;26.60;98.80;;;;;;4944373;29;20504;-82
2023/08/21 08:02:22;;;;;;;1.00;1.00;;;27.00;95.40;;;;;;4962339;29;20447;-85
2023/08/21 08:04:50;;;;;;;1.27;1.27;;;27.50;95.50;;;;;;4960830;29;20428;-79
2023/08/21 08:07:17;;;;;;;1.97;1.87;;;28.20;90.00;;;;;;4959525;29;20526;-85
2023/08/21 08:09:44;;;;;;;1.13;1.13;;;27.90;88.30;;;;;;4961034;29;20467;-80
2023/08/21 08:12:17;;;;;;;1.47;1.37;;;27.40;87.50;;;;;;4957652;29;20462;-87
2023/08/21 08:14:48;;;;;;;1.40;1.30;;;26.60;91.00;;;;;;4961923;29;20444;-82
2023/08/21 08:17:15;;;;;;;1.10;1.10;;;26.50;90.10;;;;;;4961446;29;20476;-84
2023/08/21 08:19:42;;;;;;;1.10;1.10;;;26.30;91.00;;;;;;4964133;29;20484;-82
2023/08/21 08:22:11;;;;;;;1.97;1.70;;;26.50;93.00;;;;;;4959241;29;20438;-81
2023/08/21 08:24:39;;;;;;;1.00;1.00;;;25.80;94.10;;;;;;4942755;29;20478;-84
2023/08/21 08:27:06;;;;;;;1.73;1.63;;;25.60;94.40;;;;;;4960793;29;20513;-85
2023/08/21 08:29:34;;;;;;;1.60;1.50;;;26.50;92.10;;;;;;4962938;29;20525;-79
2023/08/21 08:32:00;;;;;;;2.93;2.70;;;26.50;88.40;;;;;;4961708;29;20517;-79
2023/08/21 08:34:28;;;;;;;1.23;1.23;;;27.40;89.90;;;;;;4960010;29;20412;-78
2023/08/21 08:36:55;;;;;;;1.17;1.17;;;27.80;84.50;;;;;;4960658;29;20448;-83
2023/08/21 08:39:22;;;;;;;1.10;1.10;;;28.40;86.00;;;;;;4964477;29;20832;-80
2023/08/21 08:42:01;;;;;;;1.20;1.20;;;28.00;83.70;;;;;;4961165;29;20521;-81
2023/08/21 08:44:30;;;;;;;2.13;2.03;;;26.90;85.50;;;;;;4954945;29;20439;-82
2023/08/21 08:46:58;;;;;;;1.87;1.77;;;27.20;88.20;;;;;;4960673;28;20495;-79
2023/08/21 08:49:25;;;;;;;1.60;1.50;;;28.00;82.50;;;;;;4965512;29;20476;-82
2023/08/21 08:51:54;;;;;;;1.20;1.20;;;28.30;80.70;;;;;;4965398;29;20453;-86
2023/08/21 08:54:22;;;;;;;1.60;1.50;;;28.90;76.70;;;;;;4948160;29;20520;-81
2023/08/21 08:56:49;;;;;;;1.40;1.40;;;28.90;76.60;;;;;;4964630;29;20453;-78
2023/08/21 08:59:16;;;;;;;1.30;1.30;;;27.80;76.90;;;;;;4964542;29;20513;-81
2023/08/21 09:01:43;;;;;;;1.70;1.60;;;28.10;77.80;;;;;;4965034;29;20455;-81
2023/08/21 09:04:11;;;;;;;1.30;1.30;;;28.80;74.40;;;;;;4964350;29;20445;-85
2023/08/21 09:06:38;;;;;;;1.57;1.47;;;28.70;71.00;;;;;;4968573;29;20609;-81
2023/08/21 09:09:06;;;;;;;1.07;1.07;;;28.80;72.40;;;;;;4964287;29;20500;-82
2023/08/21 09:11:34;;;;;;;2.37;2.27;;;27.50;72.80;;;;;;4965825;29;20520;-84
2023/08/21 09:14:02;;;;;;;1.10;1.10;;;26.40;77.80;;;;;;4966036;29;20487;-83
2023/08/21 09:16:29;;;;;;;0.90;0.90;;;26.20;77.90;;;;;;4969157;29;20781;-85
2023/08/21 09:18:57;;;;;;;1.00;1.00;;;26.50;80.30;;;;;;4966240;29;20414;-81
2023/08/21 09:21:25;;;;;;;1.10;1.10;;;25.90;80.00;;;;;;4964649;29;20448;-80
2023/08/21 09:24:05;;;;;;;1.50;1.40;;;26.10;81.00;;;;;;4965387;28;20696;-83
2023/08/21 09:26:37;;;;;;;1.30;1.30;;;25.90;82.40;;;;;;4964982;29;20455;-80
2023/08/21 09:29:05;;;;;;;1.10;1.10;;;25.70;81.30;;;;;;4965039;29;20599;-78
2023/08/21 09:31:33;;;;;;;1.40;1.30;;;25.30;80.10;;;;;;4960389;29;20816;-82
2023/08/21 09:34:05;;;;;;;1.20;1.20;;;26.10;81.50;;;;;;4963252;29;20770;-81
2023/08/21 09:36:33;;;;;;;1.50;1.40;;;26.60;80.30;;;;;;4946949;29;20431;-81
2023/08/21 09:39:02;;;;;;;0.97;0.97;;;27.20;76.50;;;;;;4965861;29;20431;-83
2023/08/21 09:41:29;;;;;;;1.10;1.10;;;27.90;79.70;;;;;;4966902;29;20520;-86
2023/08/21 09:44:00;;;;;;;1.03;1.03;;;28.30;73.30;;;;;;4963889;29;20449;-84
2023/08/21 09:46:28;;;;;;;1.80;1.70;;;27.50;69.50;;;;;;4964710;29;20451;-82
2023/08/21 09:48:55;;;;;;;0.93;0.93;;;27.30;73.30;;;;;;4964346;29;20492;-78
2023/08/21 09:51:28;;;;;;;1.13;1.13;;;27.30;72.00;;;;;;4965024;29;20447;-85
2023/08/21 09:53:58;;;;;;;2.20;2.10;;;27.10;74.60;;;;;;4965006;29;20793;-84
2023/08/21 09:56:25;;;;;;;0.97;0.97;;;27.10;76.60;;;;;;4962279;29;20497;-79
2023/08/21 09:58:53;;;;;;;1.30;1.30;;;27.20;76.20;;;;;;4962400;28;20808;-82
2023/08/21 10:01:21;;;;;;;1.10;1.10;;;27.10;74.40;;;;;;4953484;29;20845;-83
2023/08/21 10:03:49;;;;;;;1.00;1.00;;;26.90;77.00;;;;;;4962649;29;20428;-82
2023/08/21 10:06:20;;;;;;;1.10;1.10;;;27.40;76.00;;;;;;4963834;29;20548;-79
2023/08/21 10:08:53;;;;;;;1.20;1.20;;;27.40;75.30;;;;;;4962971;29;20608;-79
2023/08/21 10:11:20;;;;;;;0.90;0.90;;;27.60;74.50;;;;;;4962144;29;20419;-83
2023/08/21 10:13:52;;;;;;;1.50;1.40;;;27.40;74.90;;;;;;4963563;29;20652;-81
2023/08/21 10:16:23;;;;;;;1.20;1.20;;;27.70;71.50;;;;;;4967948;29;20432;-83
2023/08/21 10:18:51;;;;;;;0.90;0.90;;;28.10;72.80;;;;;;4967896;29;20415;-83
2023/08/21 10:21:20;;;;;;;1.10;1.10;;;28.70;71.50;;;;;;4962007;29;20733;-83
2023/08/21 10:23:49;;;;;;;1.00;1.00;;;28.70;72.80;;;;;;4963265;29;20456;-82
2023/08/21 10:26:19;;;;;;;1.70;1.60;;;28.70;70.30;;;;;;4960992;29;20518;-84
2023/08/21 10:28:59;;;;;;;1.27;1.23;;;28.70;70.20;;;;;;4962953;29;20509;-81
2023/08/21 10:31:40;;;;;;;1.23;1.00;;;28.60;68.70;;;;;;4960801;29;20524;-78
2023/08/21 10:34:09;;;;;;;1.10;1.10;;;28.40;70.60;;;;;;4964705;29;20415;-80
2023/08/21 10:36:42;;;;;;;1.37;1.30;;;28.20;71.60;;;;;;4964205;28;20505;-87
2023/08/21 10:39:22;;;;;;;1.40;1.30;;;28.30;72.80;;;;;;4964148;29;20447;-81
2023/08/21 10:42:07;;;;;;;1.00;1.00;;;28.10;72.30;;;;;;4958490;29;20793;-78
2023/08/21 10:44:48;;;;;;;1.10;1.10;;;27.40;73.20;;;;;;4965583;29;20411;-84
2023/08/21 10:47:23;;;;;;;1.00;1.00;;;27.70;74.90;;;;;;4966148;29;20859;-85
2023/08/21 10:49:56;;;;;;;1.00;1.00;;;27.90;73.10;;;;;;4965508;29;20468;-81
2023/08/21 10:52:37;;;;;;;1.30;1.27;;;28.40;73.50;;;;;;4962715;29;20420;-79
2023/08/21 10:55:05;;;;;;;1.30;1.20;;;27.90;74.90;;;;;;4947083;29;20537;-85
2023/08/21 10:57:33;;;;;;;1.30;1.30;;;28.60;72.20;;;;;;4961772;29;20625;-82
2023/08/21 11:00:03;;;;;;;1.40;1.40;;;28.20;72.90;;;;;;4965342;29;20498;-81
2023/08/21 11:02:32;;;;;;;1.30;1.20;;;28.50;72.10;;;;;;4964824;29;20485;-84
2023/08/21 11:05:00;;;;;;;1.57;1.47;;;28.40;72.60;;;;;;4966193;29;20423;-81
2023/08/21 11:07:28;;;;;;;1.00;1.00;;;28.40;72.50;;;;;;4964870;29;20463;-86
2023/08/21 11:09:56;;;;;;;11.80;2.30;;;28.40;71.60;;;;;;4964403;28;20449;-80
2023/08/21 11:12:24;;;;;;;1.53;1.43;;;28.30;73.00;;;;;;4964248;29;20412;-85
2023/08/21 11:14:51;;;;;;;1.50;1.47;;;27.30;73.20;;;;;;4966363;29;20446;-84
2023/08/21 11:17:18;;;;;;;1.27;1.27;;;27.90;74.00;;;;;;4965674;29;20548;-84
2023/08/21 11:19:48;;;;;;;1.53;1.47;;;28.10;72.10;;;;;;4964251;29;20723;-82
2023/08/21 11:22:16;;;;;;;1.10;1.10;;;28.10;72.10;;;;;;4964823;28;20821;-80
2023/08/21 11:24:48;;;;;;;2.60;1.23;;;27.80;71.90;;;;;;4955968;29;20446;-84
2023/08/21 11:27:16;;;;;;;1.03;1.03;;;27.70;73.70;;;;;;4963342;29;20728;-81
2023/08/21 11:29:45;;;;;;;1.43;1.33;;;27.90;73.40;;;;;;4966190;29;20469;-82
2023/08/21 11:32:17;;;;;;;1.00;1.00;;;27.90;72.20;;;;;;4965534;29;20513;-87
2023/08/21 11:35:03;;;;;;;1.50;1.40;;;27.60;72.80;;;;;;4937402;29;20673;-84
2023/08/21 11:37:29;;;;;;;1.00;1.00;;;27.20;76.00;;;;;;4959341;29;20475;-82
2023/08/21 11:39:58;;;;;;;1.27;1.27;;;27.40;74.70;;;;;;4962223;29;20448;-82
2023/08/21 11:42:30;;;;;;;0.90;0.90;;;26.90;75.50;;;;;;4964726;29;20431;-82
2023/08/21 11:44:59;;;;;;;1.47;1.30;;;27.30;77.10;;;;;;4964991;29;20412;-85
2023/08/21 11:47:34;;;;;;;1.10;1.10;;;27.40;75.00;;;;;;4947031;29;20487;-78
2023/08/21 11:50:06;;;;;;;1.23;1.23;;;27.50;76.70;;;;;;4963863;29;20475;-83
2023/08/21 11:52:38;;;;;;;1.10;1.10;;;27.50;75.40;;;;;;4966378;28;20679;-77
2023/08/21 11:55:12;;;;;;;1.50;1.40;;;27.70;76.00;;;;;;4960949;29;20416;-81
2023/08/21 11:57:50;;;;;;;1.23;1.23;;;27.60;75.20;;;;;;4963363;29;20728;-83
2023/08/21 12:00:18;;;;;;;1.00;1.00;;;27.80;75.70;;;;;;4964074;29;20479;-78
2023/08/21 12:03:02;;;;;;;0.87;0.87;;;27.50;74.10;;;;;;4963451;29;20428;-84
2023/08/21 12:05:30;;;;;;;0.93;0.93;;;27.60;75.70;;;;;;4957129;28;20500;-81
2023/08/21 12:07:58;;;;;;;1.80;1.70;;;27.50;74.30;;;;;;4941415;29;20459;-85
2023/08/21 12:10:28;;;;;;;1.20;1.20;;;27.70;75.60;;;;;;4958960;29;20826;-87
2023/08/21 12:12:55;;;;;;;1.57;1.47;;;28.20;73.20;;;;;;4953758;29;20585;-81
2023/08/21 12:15:23;;;;;;;1.13;1.13;;;28.50;70.30;;;;;;4956184;29;20420;-81
2023/08/21 12:17:49;;;;;;;1.37;1.27;;;28.30;68.90;;;;;;4959287;29;20509;-84
2023/08/21 12:20:16;;;;;;;1.20;1.20;;;28.00;69.90;;;;;;4958982;29;20849;-82
2023/08/21 12:22:44;;;;;;;1.20;1.20;;;28.10;71.80;;;;;;4959292;29;20494;-83
2023/08/21 12:25:13;;;;;;;1.30;1.30;;;28.30;69.90;;;;;;4958267;29;20752;-81
2023/08/21 12:27:39;;;;;;;1.03;1.03;;;28.20;71.40;;;;;;4959869;29;20548;-80
2023/08/21 12:30:08;;;;;;;1.40;1.30;;;28.10;72.00;;;;;;4958499;29;20464;-79
2023/08/21 12:32:40;;;;;;;1.20;1.20;;;28.10;73.50;;;;;;4941451;29;20674;-84
2023/08/21 12:35:11;;;;;;;1.93;1.57;;;27.90;72.30;;;;;;4952634;28;20458;-82
2023/08/21 12:37:38;;;;;;;1.20;1.20;;;28.00;72.90;;;;;;4972723;28;20436;-81
2023/08/21 12:40:07;;;;;;;0.93;0.93;;;28.10;74.00;;;;;;4966971;28;20434;-83
2023/08/21 12:42:34;;;;;;;1.07;1.07;;;27.90;73.40;;;;;;4959398;28;20820;-81
2023/08/21 12:45:03;;;;;;;1.17;1.17;;;28.00;73.30;;;;;;4961119;28;20721;-86
2023/08/21 12:47:30;;;;;;;1.93;1.83;;;28.00;74.20;;;;;;4944277;28;20451;-85
2023/08/21 12:49:56;;;;;;;1.63;1.53;;;28.20;73.50;;;;;;4940642;29;20441;-87
2023/08/21 12:52:23;;;;;;;1.10;1.10;;;28.10;74.00;;;;;;4960969;28;20480;-85
2023/08/21 12:54:50;;;;;;;2.37;2.27;;;28.20;74.70;;;;;;4942542;29;20484;-87
2023/08/21 12:57:17;;;;;;;0.90;0.90;;;28.00;76.90;;;;;;4941189;28;20748;-86
2023/08/21 12:59:44;;;;;;;0.90;0.90;;;28.10;76.00;;;;;;4960144;29;20479;-87
2023/08/21 13:02:11;;;;;;;1.47;1.37;;;28.20;76.20;;;;;;4944870;29;20419;-79
2023/08/21 13:04:38;;;;;;;1.00;1.00;;;28.10;74.70;;;;;;4942136;29;20443;-80
2023/08/21 13:07:05;;;;;;;1.40;1.30;;;27.90;76.50;;;;;;4959910;28;20467;-79
2023/08/21 13:09:33;;;;;;;1.00;1.00;;;27.90;76.10;;;;;;4943793;29;20804;-81
2023/08/21 13:12:00;;;;;;;2.07;1.97;;;28.20;77.50;;;;;;4959627;28;20508;-78
2023/08/21 13:14:27;;;;;;;1.10;1.10;;;28.30;75.10;;;;;;4959505;28;20657;-80
2023/08/21 13:16:58;;;;;;;1.20;1.20;;;28.30;77.20;;;;;;4961934;28;20437;-79
2023/08/21 13:19:25;;;;;;;0.97;0.97;;;28.20;77.10;;;;;;4942290;29;20561;-79
2023/08/21 13:21:54;;;;;;;1.00;1.00;;;28.30;76.00;;;;;;4959339;28;20449;-83
2023/08/21 13:24:21;;;;;;;1.20;1.20;;;28.20;76.10;;;;;;4960155;29;20492;-88
2023/08/21 13:26:48;;;;;;;1.00;1.00;;;28.20;75.80;;;;;;4944960;29;20420;-84
2023/08/21 13:29:15;;;;;;;1.20;1.20;;;28.20;75.80;;;;;;4959505;28;20424;-84
2023/08/21 13:31:42;;;;;;;0.90;0.90;;;28.20;75.40;;;;;;4960218;28;20496;-85
2023/08/21 13:34:09;;;;;;;2.17;2.07;;;28.20;75.40;;;;;;4960995;28;20449;-84
2023/08/21 13:36:36;;;;;;;1.37;1.27;;;28.10;75.50;;;;;;4962497;28;20415;-83
2023/08/21 13:39:04;;;;;;;1.00;1.00;;;28.10;75.80;;;;;;4967964;28;20472;-85
2023/08/21 13:41:31;;;;;;;1.67;1.57;;;28.10;74.50;;;;;;4973080;28;20415;-81
2023/08/21 13:43:58;;;;;;;1.17;1.17;;;28.30;76.10;;;;;;4976028;29;20500;-86
2023/08/21 13:46:25;;;;;;;1.27;1.27;;;28.40;76.50;;;;;;4959846;28;20426;-82
2023/08/21 13:48:52;;;;;;;2.30;2.07;;;28.40;72.70;;;;;;4958511;28;20435;-84
2023/08/21 13:51:22;;;;;;;1.07;1.07;;;28.20;74.10;;;;;;4976202;29;20443;-86
2023/08/21 13:53:49;;;;;;;1.10;1.10;;;28.30;74.90;;;;;;4958665;28;20753;-80
2023/08/21 13:56:16;;;;;;;1.23;1.17;;;28.30;77.30;;;;;;4967339;29;20420;-82